Time;durP1;ratioP1;P1;durP2;ratioP2;P2;SDS_P1;SDS_P2;PMS_P1;PMS_P2;Temp;Humidity;BMP_temperature;BMP_pressure;BME280_temperature;BME280_humidity;BME280_pressure;Samples;Min_cycle;Max_cycle;Signal;HPM_P1;HPM_P2
2023/12/19 00:01:07;;;;;;;30.67;18.95;;;2.40;99.90;;;;;;5031793;28;20096;-78
2023/12/19 00:03:33;;;;;;;45.05;23.60;;;2.30;99.90;;;;;;5031274;28;20390;-78
2023/12/19 00:05:58;;;;;;;37.05;19.73;;;2.30;99.90;;;;;;5022444;28;20017;-78
2023/12/19 00:08:24;;;;;;;33.75;18.90;;;2.20;99.90;;;;;;5028281;28;20030;-78
2023/12/19 00:10:50;;;;;;;32.15;18.05;;;2.30;99.90;;;;;;5032976;28;20084;-78
2023/12/19 00:13:16;;;;;;;33.05;17.67;;;2.30;99.90;;;;;;5031266;28;20120;-78
2023/12/19 00:15:42;;;;;;;29.75;17.83;;;2.20;99.90;;;;;;5024805;28;20068;-79
2023/12/19 00:18:08;;;;;;;33.67;18.10;;;2.20;99.90;;;;;;5032755;28;20120;-78
2023/12/19 00:20:33;;;;;;;35.05;17.88;;;2.10;99.90;;;;;;5032003;28;20033;-78
2023/12/19 00:22:59;;;;;;;30.90;17.85;;;2.10;99.90;;;;;;5031438;28;20494;-78
2023/12/19 00:25:25;;;;;;;33.88;17.48;;;2.10;99.90;;;;;;5031423;28;20051;-78
2023/12/19 00:27:51;;;;;;;30.30;17.30;;;2.10;99.90;;;;;;5031226;28;20072;-78
2023/12/19 00:30:17;;;;;;;31.63;16.90;;;2.10;99.90;;;;;;5030680;28;20025;-79
2023/12/19 00:32:43;;;;;;;29.33;16.85;;;2.20;99.90;;;;;;5030955;28;20511;-79
2023/12/19 00:35:09;;;;;;;29.95;17.33;;;2.20;99.90;;;;;;5032686;28;20025;-79
2023/12/19 00:37:35;;;;;;;26.63;16.92;;;2.20;99.90;;;;;;5032486;28;20026;-79
2023/12/19 00:40:00;;;;;;;34.97;16.60;;;2.20;99.90;;;;;;5032284;28;20079;-78
2023/12/19 00:42:26;;;;;;;25.58;16.27;;;2.20;99.90;;;;;;5031081;28;20029;-79
2023/12/19 00:44:52;;;;;;;32.13;16.65;;;2.20;99.90;;;;;;5032227;28;20041;-78
2023/12/19 00:47:17;;;;;;;26.02;15.52;;;2.20;99.90;;;;;;5031031;28;20391;-78
2023/12/19 00:49:43;;;;;;;30.70;15.77;;;2.20;99.90;;;;;;5032360;28;20037;-79
2023/12/19 00:52:09;;;;;;;28.27;15.80;;;2.20;99.90;;;;;;5032200;28;20087;-78
2023/12/19 00:54:35;;;;;;;38.42;18.35;;;2.10;99.90;;;;;;5030803;28;20032;-78
2023/12/19 00:57:00;;;;;;;30.30;17.23;;;2.20;99.90;;;;;;5047511;28;20525;-79
2023/12/19 00:59:26;;;;;;;27.23;15.57;;;2.20;99.90;;;;;;5032462;28;20025;-79
2023/12/19 01:01:52;;;;;;;22.55;13.35;;;2.20;99.90;;;;;;5047613;28;20447;-78
2023/12/19 01:04:19;;;;;;;26.23;14.93;;;2.20;99.90;;;;;;5032506;28;20026;-78
2023/12/19 01:06:45;;;;;;;24.38;13.52;;;2.20;99.90;;;;;;5030867;28;20037;-79
2023/12/19 01:09:11;;;;;;;25.77;14.35;;;2.30;99.90;;;;;;5032112;28;20022;-79
2023/12/19 01:11:36;;;;;;;24.70;13.02;;;2.30;99.90;;;;;;5047309;28;20433;-78
2023/12/19 01:14:03;;;;;;;25.60;14.32;;;2.30;99.90;;;;;;5031299;28;20039;-79
2023/12/19 01:16:28;;;;;;;25.70;13.05;;;2.30;99.90;;;;;;5032183;28;20022;-79
2023/12/19 01:18:54;;;;;;;28.75;14.02;;;2.40;99.90;;;;;;5031812;28;20033;-78
2023/12/19 01:21:20;;;;;;;21.92;13.18;;;2.40;99.90;;;;;;5025057;28;20029;-79
2023/12/19 01:23:46;;;;;;;24.77;13.93;;;2.40;99.90;;;;;;5030937;28;20026;-78
2023/12/19 01:26:11;;;;;;;25.65;13.43;;;2.50;99.90;;;;;;5030730;28;20032;-78
2023/12/19 01:28:40;;;;;;;21.65;12.60;;;2.50;99.90;;;;;;5018630;28;20068;-78
2023/12/19 01:31:06;;;;;;;20.80;12.48;;;2.50;99.90;;;;;;5026425;28;20053;-78
2023/12/19 01:33:32;;;;;;;17.88;11.35;;;2.50;99.90;;;;;;5030954;28;20535;-79
2023/12/19 01:35:57;;;;;;;23.02;13.30;;;2.50;99.90;;;;;;5031773;28;20029;-78
2023/12/19 01:38:23;;;;;;;19.67;11.93;;;2.50;99.90;;;;;;5031889;28;20467;-79
2023/12/19 01:40:48;;;;;;;18.70;11.63;;;2.60;99.90;;;;;;5033482;28;20033;-78
2023/12/19 01:43:21;;;;;;;22.83;12.25;;;2.60;99.90;;;;;;5034087;28;20021;-78
2023/12/19 01:45:48;;;;;;;20.15;12.15;;;2.60;99.90;;;;;;5035478;28;20100;-78
2023/12/19 01:48:15;;;;;;;19.23;10.82;;;2.60;99.90;;;;;;5035417;28;20056;-79
2023/12/19 01:50:41;;;;;;;18.83;11.85;;;2.60;99.90;;;;;;5033663;28;20026;-79
2023/12/19 01:53:09;;;;;;;18.95;11.77;;;2.60;99.90;;;;;;5033758;28;20116;-78
2023/12/19 01:55:36;;;;;;;19.25;11.63;;;2.60;99.90;;;;;;5033974;28;20021;-78
2023/12/19 01:58:03;;;;;;;19.95;11.35;;;2.60;99.90;;;;;;5034041;28;20018;-78
2023/12/19 02:00:29;;;;;;;27.63;16.45;;;2.60;99.90;;;;;;5034769;28;20399;-79
2023/12/19 02:02:55;;;;;;;16.55;10.73;;;2.60;99.90;;;;;;5024796;28;20037;-79
2023/12/19 02:05:21;;;;;;;21.48;11.90;;;2.60;99.90;;;;;;5034899;28;20021;-78
2023/12/19 02:07:48;;;;;;;17.70;11.05;;;2.60;99.90;;;;;;5035041;28;20052;-78
2023/12/19 02:10:15;;;;;;;17.17;10.40;;;2.60;99.90;;;;;;5034995;28;20482;-78
2023/12/19 02:12:41;;;;;;;15.15;9.18;;;2.60;99.90;;;;;;5033816;28;20044;-78
2023/12/19 02:15:07;;;;;;;21.40;8.82;;;2.60;99.90;;;;;;5034737;28;20032;-78
2023/12/19 02:17:33;;;;;;;13.65;9.43;;;2.60;99.90;;;;;;5033933;28;20025;-78
2023/12/19 02:19:59;;;;;;;16.50;9.35;;;2.60;99.90;;;;;;5034592;28;20502;-78
2023/12/19 02:22:25;;;;;;;14.13;8.85;;;2.60;99.90;;;;;;5033513;28;20386;-78
2023/12/19 02:24:51;;;;;;;17.75;9.38;;;2.60;99.90;;;;;;5034780;28;20108;-78
2023/12/19 02:27:20;;;;;;;12.80;8.15;;;2.60;99.90;;;;;;5033501;28;20025;-78
2023/12/19 02:29:46;;;;;;;15.25;8.68;;;2.60;99.90;;;;;;5030510;28;20052;-77
2023/12/19 02:32:11;;;;;;;12.85;8.40;;;2.60;99.90;;;;;;5024363;28;20089;-78
2023/12/19 02:34:37;;;;;;;16.10;8.57;;;2.60;99.90;;;;;;5034689;28;20024;-79
2023/12/19 02:37:03;;;;;;;15.65;8.27;;;2.60;99.90;;;;;;5033004;28;20540;-79
2023/12/19 02:39:28;;;;;;;13.25;8.48;;;2.60;99.90;;;;;;5024457;28;20036;-78
2023/12/19 02:41:54;;;;;;;13.15;8.25;;;2.60;99.90;;;;;;5033161;28;20032;-79
2023/12/19 02:44:20;;;;;;;11.63;7.97;;;2.60;99.90;;;;;;5034463;28;20025;-79
2023/12/19 02:46:45;;;;;;;15.93;9.05;;;2.70;99.90;;;;;;5034334;28;20017;-79
2023/12/19 02:49:11;;;;;;;13.18;8.48;;;2.70;99.90;;;;;;5034160;28;20033;-78
2023/12/19 02:51:36;;;;;;;15.65;8.23;;;2.60;99.90;;;;;;5034218;28;20033;-78
2023/12/19 02:54:02;;;;;;;17.33;8.35;;;2.60;99.90;;;;;;5033071;28;20056;-78
2023/12/19 02:56:28;;;;;;;13.40;8.60;;;2.60;99.90;;;;;;5034121;28;20067;-79
2023/12/19 02:58:54;;;;;;;14.82;7.50;;;2.60;99.90;;;;;;5033015;28;20032;-79
2023/12/19 03:01:19;;;;;;;13.98;7.63;;;2.60;99.90;;;;;;5032442;28;20018;-78
2023/12/19 03:03:45;;;;;;;11.27;7.05;;;2.70;99.90;;;;;;5032550;28;20053;-78
2023/12/19 03:06:13;;;;;;;9.73;6.65;;;2.70;99.90;;;;;;5034035;28;20025;-78
2023/12/19 03:08:47;;;;;;;10.32;6.88;;;2.80;99.90;;;;;;5032549;28;20013;-79
2023/12/19 03:11:13;;;;;;;11.80;6.15;;;2.80;99.90;;;;;;5034061;28;20030;-80
2023/12/19 03:13:40;;;;;;;10.50;6.00;;;2.80;99.90;;;;;;5032391;28;20033;-79
2023/12/19 03:16:07;;;;;;;9.32;5.55;;;2.80;99.90;;;;;;5033900;28;20075;-81
2023/12/19 03:18:32;;;;;;;7.32;5.30;;;2.90;99.90;;;;;;5032274;28;20024;-81
2023/12/19 03:20:58;;;;;;;9.45;6.15;;;2.90;99.90;;;;;;5032236;28;20026;-80
2023/12/19 03:23:24;;;;;;;9.18;5.70;;;3.00;99.90;;;;;;5031951;28;20117;-81
2023/12/19 03:25:49;;;;;;;10.45;6.25;;;3.00;99.90;;;;;;5029526;28;20075;-80
2023/12/19 03:28:15;;;;;;;11.32;7.32;;;3.00;99.90;;;;;;5031484;28;20037;-80
2023/12/19 03:30:41;;;;;;;9.25;6.05;;;3.00;99.90;;;;;;5024785;28;20028;-81
2023/12/19 03:33:07;;;;;;;11.05;6.95;;;3.10;99.90;;;;;;5033187;28;20060;-81
2023/12/19 03:35:33;;;;;;;9.45;6.07;;;3.10;99.90;;;;;;5033666;28;20105;-81
2023/12/19 03:37:59;;;;;;;11.48;5.88;;;3.10;99.90;;;;;;5032027;28;20018;-80
2023/12/19 03:40:24;;;;;;;9.63;5.93;;;3.20;99.90;;;;;;5032308;28;20037;-81
2023/12/19 03:42:50;;;;;;;9.18;5.30;;;3.20;99.90;;;;;;5033396;28;20104;-80
2023/12/19 03:45:16;;;;;;;9.68;5.95;;;3.20;99.90;;;;;;5032090;28;20388;-80
2023/12/19 03:47:42;;;;;;;8.88;5.65;;;3.20;99.90;;;;;;5032966;28;20028;-80
2023/12/19 03:50:09;;;;;;;7.70;5.20;;;3.30;99.90;;;;;;5032931;28;20491;-80
2023/12/19 03:52:35;;;;;;;9.02;5.68;;;3.30;99.90;;;;;;5032792;28;20033;-80
2023/12/19 03:55:01;;;;;;;13.02;6.70;;;3.40;99.90;;;;;;5031810;28;20033;-80
2023/12/19 03:57:27;;;;;;;9.77;5.57;;;3.30;99.90;;;;;;5031746;28;20497;-81
2023/12/19 03:59:53;;;;;;;10.30;6.05;;;3.30;99.90;;;;;;5023636;28;20022;-79
2023/12/19 04:02:19;;;;;;;7.20;6.15;;;3.40;99.90;;;;;;5031275;28;20048;-80
2023/12/19 04:04:45;;;;;;;9.77;5.80;;;3.40;99.90;;;;;;5032410;28;20049;-80
2023/12/19 04:07:10;;;;;;;10.02;5.70;;;3.40;99.90;;;;;;5033055;28;20025;-79
2023/12/19 04:09:36;;;;;;;9.80;6.07;;;3.40;99.90;;;;;;5031353;28;20021;-79
2023/12/19 04:12:02;;;;;;;8.55;7.30;;;3.30;99.90;;;;;;5031768;28;20037;-79
2023/12/19 04:14:31;;;;;;;11.75;8.15;;;3.30;99.90;;;;;;5032763;28;20100;-79
2023/12/19 04:16:58;;;;;;;12.73;8.65;;;3.30;99.90;;;;;;5032439;28;20100;-79
2023/12/19 04:19:23;;;;;;;10.00;6.68;;;3.30;99.90;;;;;;5031072;28;20029;-78
2023/12/19 04:21:50;;;;;;;8.75;6.88;;;3.30;99.90;;;;;;5030571;28;20022;-78
2023/12/19 04:24:16;;;;;;;8.43;6.45;;;3.40;99.90;;;;;;5032517;28;20013;-79
2023/12/19 04:26:42;;;;;;;10.75;8.07;;;3.30;99.90;;;;;;5032141;28;20033;-79
2023/12/19 04:29:08;;;;;;;11.55;6.65;;;3.30;99.90;;;;;;5023291;28;20030;-79
2023/12/19 04:31:35;;;;;;;10.55;6.43;;;3.30;99.90;;;;;;5026310;28;20060;-79
2023/12/19 04:34:02;;;;;;;10.15;6.78;;;3.30;99.90;;;;;;5029861;28;20495;-78
2023/12/19 04:36:29;;;;;;;13.18;6.65;;;3.40;99.90;;;;;;5032455;28;20024;-78
2023/12/19 04:38:55;;;;;;;12.75;6.95;;;3.40;99.90;;;;;;5031461;28;20052;-78
2023/12/19 04:41:20;;;;;;;9.40;6.50;;;3.40;99.90;;;;;;5032327;28;20025;-78
2023/12/19 04:43:46;;;;;;;9.20;6.00;;;3.40;99.90;;;;;;5032515;28;20053;-79
2023/12/19 04:46:12;;;;;;;9.80;5.70;;;3.30;99.90;;;;;;5032683;28;20017;-78
2023/12/19 04:48:37;;;;;;;9.93;6.40;;;3.40;99.90;;;;;;5031262;28;20041;-79
2023/12/19 04:51:03;;;;;;;8.10;6.22;;;3.40;99.90;;;;;;5030978;28;20095;-75
2023/12/19 04:53:30;;;;;;;9.13;5.50;;;3.30;99.90;;;;;;5030516;28;20040;-78
2023/12/19 04:55:55;;;;;;;10.02;6.38;;;3.30;99.90;;;;;;5030968;28;20122;-78
2023/12/19 04:58:21;;;;;;;8.50;5.93;;;3.30;99.90;;;;;;5031991;28;20100;-78
2023/12/19 05:00:48;;;;;;;12.00;5.43;;;3.30;99.90;;;;;;5031102;28;20028;-78
2023/12/19 05:03:14;;;;;;;11.43;6.05;;;3.30;99.90;;;;;;5031966;28;20017;-79
2023/12/19 05:05:39;;;;;;;8.45;5.88;;;3.30;99.90;;;;;;5030952;28;20021;-78
2023/12/19 05:08:05;;;;;;;9.57;5.40;;;3.20;99.90;;;;;;5032079;28;20459;-78
2023/12/19 05:10:31;;;;;;;12.13;5.75;;;3.20;99.90;;;;;;5029531;28;20037;-79
2023/12/19 05:12:57;;;;;;;11.15;5.93;;;3.30;99.90;;;;;;5031877;28;20091;-78
2023/12/19 05:15:22;;;;;;;10.10;5.55;;;3.20;99.90;;;;;;5032938;28;20108;-78
2023/12/19 05:17:48;;;;;;;9.68;7.15;;;3.20;99.90;;;;;;5034549;28;20108;-78
2023/12/19 05:20:13;;;;;;;44.70;19.08;;;3.20;99.90;;;;;;5024454;28;20085;-78
2023/12/19 05:22:39;;;;;;;158.95;62.22;;;3.20;99.90;;;;;;5035229;28;20025;-79
2023/12/19 05:25:06;;;;;;;43.97;18.08;;;3.10;99.90;;;;;;5034375;28;20394;-81
2023/12/19 05:27:32;;;;;;;9.88;6.32;;;3.10;99.90;;;;;;5035296;28;20029;-80
2023/12/19 05:29:57;;;;;;;48.72;19.88;;;3.10;99.90;;;;;;5034941;28;20076;-80
2023/12/19 05:32:23;;;;;;;215.40;85.97;;;3.10;99.90;;;;;;5037785;28;20057;-78
2023/12/19 05:34:48;;;;;;;124.05;52.45;;;3.00;99.90;;;;;;5049387;28;20036;-78
2023/12/19 05:37:14;;;;;;;137.38;54.60;;;3.00;99.90;;;;;;5034334;28;20398;-79
2023/12/19 05:39:42;;;;;;;115.93;48.80;;;2.90;99.90;;;;;;5034496;28;20448;-79
2023/12/19 05:42:08;;;;;;;157.38;64.80;;;2.90;99.90;;;;;;5033955;28;20109;-79
2023/12/19 05:44:34;;;;;;;130.07;48.90;;;2.80;99.90;;;;;;5034897;28;20037;-79
2023/12/19 05:47:00;;;;;;;121.45;39.85;;;2.80;99.90;;;;;;5034116;28;20403;-79
2023/12/19 05:49:25;;;;;;;227.70;68.32;;;2.70;99.90;;;;;;5035517;28;20092;-79
2023/12/19 05:51:51;;;;;;;104.30;31.30;;;2.70;99.90;;;;;;5035123;28;20072;-81
2023/12/19 05:54:16;;;;;;;201.07;57.72;;;2.60;99.90;;;;;;5035154;28;20025;-78
2023/12/19 05:56:42;;;;;;;103.90;33.40;;;2.70;99.90;;;;;;5050245;28;20474;-79
2023/12/19 05:59:08;;;;;;;174.52;50.53;;;2.60;99.90;;;;;;5033723;28;20033;-80
2023/12/19 06:01:40;;;;;;;194.40;52.30;;;2.60;99.90;;;;;;5033974;28;20521;-80
2023/12/19 06:04:06;;;;;;;50.65;18.05;;;2.60;99.90;;;;;;5034947;28;20029;-84
2023/12/19 06:06:33;;;;;;;17.63;8.80;;;2.60;99.90;;;;;;5035067;28;20025;-79
2023/12/19 06:08:59;;;;;;;15.88;7.55;;;2.60;99.90;;;;;;5033292;28;20040;-81
2023/12/19 06:11:26;;;;;;;9.60;5.32;;;2.70;99.90;;;;;;5034638;28;20033;-82
2023/12/19 06:13:52;;;;;;;126.78;39.78;;;2.70;99.90;;;;;;5034696;28;20477;-80
2023/12/19 06:16:18;;;;;;;104.60;34.60;;;2.70;99.90;;;;;;5041069;28;20124;-80
2023/12/19 06:18:43;;;;;;;93.85;30.15;;;2.80;99.90;;;;;;5034529;28;20021;-79
2023/12/19 06:21:09;;;;;;;69.53;21.58;;;2.80;99.90;;;;;;5050089;28;20021;-80
2023/12/19 06:23:35;;;;;;;45.50;16.25;;;2.90;99.90;;;;;;5049673;28;20060;-80
2023/12/19 06:26:01;;;;;;;33.50;12.68;;;2.90;99.90;;;;;;5032403;28;20032;-81
2023/12/19 06:28:26;;;;;;;13.35;6.78;;;2.80;99.90;;;;;;5047081;28;20112;-80
2023/12/19 06:30:52;;;;;;;12.85;6.97;;;2.80;99.90;;;;;;5031895;28;20484;-81
2023/12/19 06:33:17;;;;;;;14.35;7.35;;;2.80;99.90;;;;;;5028746;28;20075;-82
2023/12/19 06:35:46;;;;;;;13.07;8.18;;;2.90;99.90;;;;;;5031168;28;20044;-79
2023/12/19 06:38:12;;;;;;;12.50;7.40;;;2.90;99.90;;;;;;5014692;28;20036;-80
2023/12/19 06:40:37;;;;;;;14.80;8.23;;;2.90;99.90;;;;;;5031780;28;20394;-80
2023/12/19 06:43:03;;;;;;;13.32;7.88;;;3.00;99.90;;;;;;5032327;28;20029;-80
2023/12/19 06:45:29;;;;;;;12.68;8.48;;;3.00;99.90;;;;;;5032284;28;20079;-80
2023/12/19 06:47:55;;;;;;;13.50;8.18;;;3.00;99.90;;;;;;5031139;28;20414;-80
2023/12/19 06:50:21;;;;;;;12.15;8.60;;;3.10;99.90;;;;;;5033087;28;20030;-80
2023/12/19 06:52:46;;;;;;;9.70;6.63;;;3.00;99.90;;;;;;5033743;28;20037;-80
2023/12/19 06:55:12;;;;;;;22.15;9.02;;;3.10;99.90;;;;;;5033277;28;20073;-81
2023/12/19 06:57:38;;;;;;;11.30;7.15;;;3.10;99.90;;;;;;5032730;28;20017;-81
2023/12/19 07:00:06;;;;;;;9.50;6.05;;;3.20;99.90;;;;;;5032860;28;20503;-80
2023/12/19 07:02:32;;;;;;;13.15;6.53;;;3.20;99.90;;;;;;5032951;28;20026;-80
2023/12/19 07:04:58;;;;;;;11.93;6.80;;;3.30;99.90;;;;;;5030964;28;20108;-80
2023/12/19 07:07:24;;;;;;;15.63;8.25;;;3.30;99.90;;;;;;5030392;28;20026;-81
2023/12/19 07:09:50;;;;;;;46.95;20.80;;;3.30;99.90;;;;;;5031141;28;20040;-81
2023/12/19 07:12:15;;;;;;;42.97;19.65;;;3.30;99.90;;;;;;5031942;28;20034;-80
2023/12/19 07:14:41;;;;;;;42.55;18.08;;;3.30;99.90;;;;;;5030474;28;20030;-80
2023/12/19 07:17:07;;;;;;;30.90;14.10;;;3.30;99.90;;;;;;5032367;28;20025;-80
2023/12/19 07:19:33;;;;;;;15.50;9.57;;;3.30;99.90;;;;;;5032744;28;20475;-80
2023/12/19 07:21:59;;;;;;;11.95;6.55;;;3.30;99.90;;;;;;5032443;28;20014;-80
2023/12/19 07:24:25;;;;;;;17.52;8.25;;;3.30;99.60;;;;;;5033916;28;20498;-80
2023/12/19 07:26:51;;;;;;;28.33;12.60;;;3.40;98.00;;;;;;5032245;28;20020;-80
2023/12/19 07:29:16;;;;;;;21.05;9.20;;;3.40;96.70;;;;;;5033750;28;20490;-80
2023/12/19 07:31:42;;;;;;;11.90;7.55;;;3.50;95.90;;;;;;5031553;28;20108;-80
2023/12/19 07:34:07;;;;;;;15.95;6.50;;;3.50;95.60;;;;;;5033681;28;20118;-80
2023/12/19 07:36:34;;;;;;;16.58;9.25;;;3.50;94.70;;;;;;5031693;28;20020;-80
2023/12/19 07:39:00;;;;;;;34.00;18.67;;;3.50;94.10;;;;;;5033320;28;20491;-80
2023/12/19 07:41:26;;;;;;;48.40;25.63;;;3.50;93.60;;;;;;5033236;28;20097;-80
2023/12/19 07:43:55;;;;;;;23.33;10.40;;;3.60;92.80;;;;;;5032191;28;20033;-81
2023/12/19 07:46:22;;;;;;;28.38;14.27;;;3.70;91.70;;;;;;5031691;28;20026;-81
2023/12/19 07:48:47;;;;;;;34.67;16.02;;;3.80;91.50;;;;;;5031856;28;20025;-81
2023/12/19 07:51:18;;;;;;;13.43;9.32;;;3.90;91.40;;;;;;5031912;28;20104;-81
2023/12/19 07:53:43;;;;;;;22.88;10.68;;;4.00;90.00;;;;;;5033169;28;20452;-81
2023/12/19 07:56:09;;;;;;;26.45;14.90;;;4.10;89.20;;;;;;5031874;28;20108;-80
2023/12/19 07:58:35;;;;;;;32.28;16.35;;;4.20;88.70;;;;;;5033193;28;20025;-80
2023/12/19 08:01:00;;;;;;;14.68;8.40;;;4.30;88.00;;;;;;5031708;28;20028;-80
2023/12/19 08:03:29;;;;;;;14.05;7.57;;;4.50;86.50;;;;;;5032531;28;20038;-80
2023/12/19 08:05:56;;;;;;;10.95;6.43;;;4.60;85.40;;;;;;5015243;28;20502;-81
2023/12/19 08:08:25;;;;;;;14.30;8.05;;;4.80;84.20;;;;;;5031692;28;20025;-81
2023/12/19 08:10:52;;;;;;;17.42;7.93;;;4.90;83.00;;;;;;5031224;28;20013;-80
2023/12/19 08:13:20;;;;;;;11.70;5.43;;;5.00;81.40;;;;;;5031694;28;20384;-81
2023/12/19 08:15:47;;;;;;;11.98;5.60;;;5.10;80.10;;;;;;5031617;28;20018;-80
2023/12/19 08:18:13;;;;;;;11.38;5.60;;;5.20;79.00;;;;;;5033022;28;20025;-80
2023/12/19 08:20:38;;;;;;;7.57;5.55;;;5.20;78.40;;;;;;5032681;28;20021;-80
2023/12/19 08:23:04;;;;;;;9.48;5.25;;;5.30;77.80;;;;;;5031780;28;20025;-80
2023/12/19 08:25:30;;;;;;;9.75;5.43;;;5.30;77.60;;;;;;5032685;28;20029;-81
2023/12/19 08:27:55;;;;;;;11.82;5.93;;;5.40;77.00;;;;;;5030734;28;20014;-81
2023/12/19 08:30:24;;;;;;;12.27;6.60;;;5.40;76.70;;;;;;5031226;28;20071;-81
2023/12/19 08:32:50;;;;;;;9.13;4.57;;;5.40;76.20;;;;;;5031255;28;20045;-80
2023/12/19 08:35:17;;;;;;;9.27;4.88;;;5.50;75.40;;;;;;5031154;28;20013;-80
2023/12/19 08:37:43;;;;;;;7.25;5.10;;;5.50;75.40;;;;;;5031355;28;20029;-80
2023/12/19 08:40:09;;;;;;;7.80;4.53;;;5.40;75.70;;;;;;5031123;28;20025;-80
2023/12/19 08:42:35;;;;;;;10.07;4.57;;;5.40;76.10;;;;;;5031248;28;20029;-80
2023/12/19 08:45:00;;;;;;;10.25;5.20;;;5.50;76.20;;;;;;5031275;28;20036;-80
2023/12/19 08:47:26;;;;;;;6.05;4.57;;;5.60;76.80;;;;;;5032616;28;20497;-80
2023/12/19 08:49:56;;;;;;;9.30;4.47;;;5.70;75.40;;;;;;5034504;28;20040;-81
2023/12/19 08:52:22;;;;;;;9.10;5.13;;;5.80;75.30;;;;;;5035316;28;20415;-80
2023/12/19 08:54:48;;;;;;;7.60;4.47;;;5.90;74.70;;;;;;5036386;28;20020;-81
2023/12/19 08:57:14;;;;;;;7.90;4.80;;;6.10;73.30;;;;;;5034260;28;20418;-82
2023/12/19 08:59:40;;;;;;;6.30;3.85;;;6.20;72.40;;;;;;5035136;28;20501;-80
2023/12/19 09:02:06;;;;;;;6.45;4.72;;;6.20;71.50;;;;;;5036331;28;20096;-81
2023/12/19 09:04:32;;;;;;;8.98;4.40;;;6.30;71.90;;;;;;5034940;28;20561;-81
2023/12/19 09:06:58;;;;;;;8.02;4.30;;;6.40;70.90;;;;;;5035230;28;20555;-82
2023/12/19 09:09:24;;;;;;;7.68;4.15;;;6.50;70.30;;;;;;5034625;28;20259;-82
2023/12/19 09:11:49;;;;;;;9.98;4.38;;;6.50;70.30;;;;;;5036309;28;20022;-82
2023/12/19 09:14:16;;;;;;;8.68;6.13;;;6.50;69.80;;;;;;5036021;28;20034;-80
2023/12/19 09:16:43;;;;;;;7.35;4.65;;;6.50;70.10;;;;;;5034738;28;20049;-81
2023/12/19 09:19:09;;;;;;;7.18;4.80;;;6.50;69.60;;;;;;5034707;28;20087;-80
2023/12/19 09:21:35;;;;;;;9.48;5.65;;;6.40;70.10;;;;;;5034770;28;20033;-81
2023/12/19 09:24:00;;;;;;;9.43;5.18;;;6.40;70.30;;;;;;5034635;28;20021;-80
2023/12/19 09:26:27;;;;;;;8.05;4.43;;;6.40;70.50;;;;;;5033938;28;20502;-82
2023/12/19 09:28:55;;;;;;;7.82;5.03;;;6.40;70.20;;;;;;5035866;28;20372;-81
2023/12/19 09:31:21;;;;;;;10.30;6.05;;;6.30;70.60;;;;;;5034437;28;20036;-81
2023/12/19 09:33:47;;;;;;;9.07;5.40;;;6.30;70.60;;;;;;5034312;28;20033;-81
2023/12/19 09:36:22;;;;;;;7.35;4.20;;;6.40;70.90;;;;;;5034567;28;20176;-81
2023/12/19 09:38:48;;;;;;;8.52;4.50;;;6.40;70.90;;;;;;5022204;28;20375;-80
2023/12/19 09:41:13;;;;;;;6.75;3.67;;;6.60;70.70;;;;;;5034620;28;20021;-80
2023/12/19 09:43:41;;;;;;;7.53;4.63;;;6.70;70.80;;;;;;5034573;28;20099;-82
2023/12/19 09:46:07;;;;;;;6.97;4.15;;;6.80;70.30;;;;;;5034376;28;20063;-80
2023/12/19 09:48:35;;;;;;;6.40;4.25;;;6.90;69.70;;;;;;5034402;28;20032;-81
2023/12/19 09:51:03;;;;;;;7.03;3.75;;;6.90;69.40;;;;;;5035225;28;20030;-80
2023/12/19 09:53:34;;;;;;;6.50;4.40;;;7.00;68.80;;;;;;5035416;28;20029;-81
2023/12/19 09:56:01;;;;;;;9.95;4.55;;;7.10;68.40;;;;;;5034034;28;20022;-81
2023/12/19 09:58:28;;;;;;;7.97;4.28;;;7.20;68.20;;;;;;5034046;28;20033;-81
2023/12/19 10:00:58;;;;;;;8.80;4.07;;;7.40;68.00;;;;;;5033298;28;20428;-80
2023/12/19 10:03:24;;;;;;;8.07;3.97;;;7.40;67.30;;;;;;5034170;28;20025;-81
2023/12/19 10:05:50;;;;;;;5.70;3.78;;;7.50;66.30;;;;;;5021143;28;20391;-80
2023/12/19 10:08:15;;;;;;;6.03;4.00;;;7.60;66.40;;;;;;5033796;28;20022;-81
2023/12/19 10:10:55;;;;;;;5.68;3.97;;;7.60;66.20;;;;;;5033465;28;20029;-80
2023/12/19 10:13:37;;;;;;;7.13;4.43;;;7.70;65.40;;;;;;5033642;28;20402;-80
2023/12/19 10:16:17;;;;;;;8.02;4.20;;;7.80;65.40;;;;;;5022534;28;20104;-80
2023/12/19 10:18:43;;;;;;;11.75;4.65;;;7.90;64.90;;;;;;5034854;28;20084;-81
2023/12/19 10:21:11;;;;;;;10.02;7.15;;;7.90;64.10;;;;;;5033874;28;20379;-80
2023/12/19 10:23:38;;;;;;;7.75;3.70;;;8.00;64.60;;;;;;5033270;28;20802;-80
2023/12/19 10:26:04;;;;;;;5.57;3.72;;;8.10;63.90;;;;;;5033284;28;20071;-80
2023/12/19 10:28:34;;;;;;;6.93;4.50;;;8.20;63.90;;;;;;5033345;28;20028;-81
2023/12/19 10:31:06;;;;;;;7.97;4.28;;;8.20;63.40;;;;;;5033699;28;20064;-81
2023/12/19 10:33:50;;;;;;;7.80;3.55;;;8.30;63.60;;;;;;5034197;28;20120;-81
2023/12/19 10:36:30;;;;;;;8.13;4.10;;;8.40;63.00;;;;;;5042979;28;20060;-80
2023/12/19 10:38:58;;;;;;;6.40;3.97;;;8.40;63.10;;;;;;5033507;28;20525;-80
2023/12/19 10:41:28;;;;;;;5.85;3.75;;;8.50;62.70;;;;;;5032810;28;20032;-80
2023/12/19 10:43:58;;;;;;;7.22;3.05;;;8.60;61.80;;;;;;5033623;28;20025;-81
2023/12/19 10:46:27;;;;;;;6.03;3.65;;;8.60;61.90;;;;;;5033128;28;20383;-81
2023/12/19 10:49:00;;;;;;;9.10;3.35;;;8.70;60.60;;;;;;5034653;28;20032;-81
2023/12/19 10:51:47;;;;;;;5.95;3.30;;;8.70;60.60;;;;;;5033037;28;20059;-80
2023/12/19 10:54:14;;;;;;;6.55;3.05;;;8.70;61.10;;;;;;5032854;28;20033;-80
2023/12/19 10:57:17;;;;;;;7.95;4.20;;;8.70;61.00;;;;;;5034068;28;20030;-80
2023/12/19 11:00:09;;;;;;;4.40;2.78;;;8.80;60.80;;;;;;5032673;28;20022;-80
2023/12/19 11:02:47;;;;;;;6.63;4.45;;;8.80;60.70;;;;;;5033947;28;20079;-80
2023/12/19 11:05:20;;;;;;;6.18;3.97;;;8.90;61.10;;;;;;5032953;28;20087;-80
2023/12/19 11:07:46;;;;;;;;;;;9.00;60.00;;;;;;5032859;28;20017;-80
2023/12/19 11:10:14;;;;;;;4.70;2.85;;;9.00;60.60;;;;;;5029775;28;19910;-80
2023/12/19 11:12:42;;;;;;;5.47;3.72;;;9.00;59.30;;;;;;5029684;28;20091;-81
2023/12/19 11:15:08;;;;;;;5.10;3.30;;;9.00;59.80;;;;;;5026758;28;20487;-82
2023/12/19 11:17:33;;;;;;;5.28;3.45;;;9.10;59.30;;;;;;5037933;28;20024;-83
2023/12/19 11:20:13;;;;;;;7.03;3.63;;;9.10;60.00;;;;;;5025856;28;20443;-82
2023/12/19 11:22:59;;;;;;;5.38;3.58;;;9.10;59.80;;;;;;5022604;28;20021;-82
2023/12/19 11:25:33;;;;;;;9.57;3.58;;;9.20;59.40;;;;;;5031813;28;20048;-79
2023/12/19 11:28:03;;;;;;;6.40;2.55;;;9.20;59.00;;;;;;5035282;28;20022;-80
2023/12/19 11:30:40;;;;;;;4.50;3.55;;;9.10;59.30;;;;;;5034468;28;20030;-82
2023/12/19 11:33:29;;;;;;;5.93;3.10;;;9.10;59.90;;;;;;5033702;28;20051;-83
2023/12/19 11:35:55;;;;;;;5.95;3.13;;;9.20;59.60;;;;;;5032666;28;20041;-82
2023/12/19 11:38:25;;;;;;;5.30;3.58;;;9.20;58.90;;;;;;5034491;28;20022;-82
2023/12/19 11:40:53;;;;;;;6.18;3.60;;;9.20;58.80;;;;;;5031135;28;20041;-82
2023/12/19 11:43:28;;;;;;;4.95;3.22;;;9.20;58.80;;;;;;5033179;28;20026;-83
2023/12/19 11:45:54;;;;;;;4.88;3.60;;;9.10;59.10;;;;;;5030711;28;20118;-80
2023/12/19 11:48:36;;;;;;;5.35;3.30;;;9.10;58.70;;;;;;5038900;28;20506;-80
2023/12/19 11:51:03;;;;;;;5.50;3.40;;;9.10;58.70;;;;;;5032205;28;20046;-80
2023/12/19 11:53:28;;;;;;;7.10;3.78;;;9.10;58.90;;;;;;5032412;28;20037;-81
2023/12/19 11:56:13;;;;;;;6.35;3.60;;;9.00;59.10;;;;;;5030821;28;20037;-81
2023/12/19 11:58:47;;;;;;;7.28;3.33;;;9.00;59.10;;;;;;5031583;28;20085;-79
2023/12/19 12:01:13;;;;;;;7.30;3.72;;;9.10;58.70;;;;;;5031218;28;20037;-79
2023/12/19 12:03:39;;;;;;;5.80;4.10;;;9.00;58.80;;;;;;5032274;28;20053;-79
2023/12/19 12:06:06;;;;;;;4.70;3.40;;;9.00;58.70;;;;;;5030825;28;20419;-80
2023/12/19 12:08:32;;;;;;;6.15;3.13;;;9.00;59.40;;;;;;5033017;28;20113;-79
2023/12/19 12:11:01;;;;;;;5.70;3.30;;;8.90;60.10;;;;;;5039058;28;20112;-79
2023/12/19 12:13:28;;;;;;;8.88;4.60;;;8.80;59.70;;;;;;5032526;28;20454;-81
2023/12/19 12:15:55;;;;;;;11.70;5.43;;;8.70;59.30;;;;;;5029670;28;20475;-82
2023/12/19 12:18:21;;;;;;;8.30;4.47;;;8.70;59.50;;;;;;5030156;28;20021;-82
2023/12/19 12:20:47;;;;;;;5.78;3.58;;;8.60;60.30;;;;;;5030308;28;20132;-82
2023/12/19 12:23:18;;;;;;;5.68;2.90;;;8.60;60.80;;;;;;5030201;28;20033;-82
2023/12/19 12:25:43;;;;;;;6.80;3.80;;;8.50;61.00;;;;;;5029494;28;20091;-81
2023/12/19 12:28:14;;;;;;;9.68;4.53;;;8.60;61.00;;;;;;5031839;28;20379;-82
2023/12/19 12:30:40;;;;;;;18.88;7.95;;;8.70;61.20;;;;;;5029801;28;20123;-82
2023/12/19 12:33:06;;;;;;;13.52;4.95;;;8.70;60.50;;;;;;5031137;28;20553;-82
2023/12/19 12:35:35;;;;;;;8.93;4.15;;;8.70;61.00;;;;;;5041719;28;20049;-82
2023/12/19 12:38:10;;;;;;;6.13;4.03;;;8.70;60.80;;;;;;5041931;28;20477;-82
2023/12/19 12:40:36;;;;;;;7.70;3.30;;;8.90;59.60;;;;;;5046959;28;20040;-82
2023/12/19 12:43:24;;;;;;;6.35;3.00;;;9.00;59.10;;;;;;5045312;28;21300;-82
2023/12/19 12:46:07;;;;;;;9.02;4.47;;;9.10;58.20;;;;;;5043511;28;20083;-82
2023/12/19 12:48:33;;;;;;;11.70;4.47;;;9.20;57.90;;;;;;5045463;28;20471;-82